PWSweather.com
Personal Weather Stations
Station Observations
HARSTAD1
Kanebogen, HarstadNO 9411

KanebogenHarstadNO 9411

Lat: 68.7731054, Lon: 16.5496315

Elevation: 213

Station Type: Netatmo Weather Station

http://oddne.net/met/

Latest ConditionsUpdated 7:28:21 AM GMT+01:01 Thursday, Mar 21, 2019
Currently Today's Max Today's Min Today's Average
Temperature 33.4°F0.8°C 35.1°F1.7°C 32.5°F0.3°C 33.8°F1.0°C
Dew Point 30.7°F-0.7°C 32.2°F0.1°C 28.8°F-1.8°C 30.3°F-0.9°C
Winds 1.9 mph SE3.1 kmh SE 5.0 mph -8.0 kmh - - 2.6 mph 4.2 kmh
Wind Gusts 4.4 mph7.1 kmh 11.8 mph19.0 kmh - -
Humidity 90% 90% 84% 87%
Pressure 29.65 in1004.1 mb 29.75 in1007.5 mb 29.65 in1004.1 mb -
Precipitation - 0.06 in1.5 mm - -
Hour Temp Dew Point Humidity Winds Wind Gusts Pressure Precip Precip Rate Daily Precip Total
07:28 AM 33.4°F0.8°C 30.7°F-0.7°C 90% 1.9 mph SE3.1 kmh SE 4.4 mph7.1 kmh 29.65 in1004.1 mb 0.00 in0.0 mm 0.00 in0.0 mm 0.06 in1.5 mm
07:18 AM 32.5°F0.3°C 29.7°F-1.3°C 89% 1.2 mph SSW1.9 kmh SSW 3.7 mph6.0 kmh 29.65 in1004.1 mb 0.00 in0.0 mm 0.00 in0.0 mm 0.06 in1.5 mm
07:07 AM 32.5°F0.3°C 29.7°F-1.3°C 89% 3.1 mph SW5.0 kmh SW 5.6 mph9.0 kmh 29.66 in1004.4 mb 0.00 in0.0 mm 0.00 in0.0 mm 0.06 in1.5 mm
06:58 AM 32.5°F0.3°C 29.1°F-1.6°C 87% 2.5 mph SW4.0 kmh SW 5.0 mph8.0 kmh 29.67 in1004.7 mb 0.00 in0.0 mm 0.00 in0.0 mm 0.06 in1.5 mm
06:48 AM 32.5°F0.3°C 28.8°F-1.8°C 86% 1.9 mph SW3.1 kmh SW 3.1 mph5.0 kmh 29.67 in1004.7 mb 0.00 in0.0 mm 0.00 in0.0 mm 0.06 in1.5 mm
06:38 AM 32.7°F0.4°C 28.9°F-1.7°C 86% 2.5 mph SW4.0 kmh SW 4.4 mph7.1 kmh 29.68 in1005.1 mb 0.00 in0.0 mm 0.00 in0.0 mm 0.06 in1.5 mm
06:28 AM 32.9°F0.5°C 29.1°F-1.6°C 86% 1.9 mph SSE3.1 kmh SSE 5.0 mph8.0 kmh 29.68 in1005.1 mb 0.00 in0.0 mm 0.00 in0.0 mm 0.06 in1.5 mm
06:18 AM 32.7°F0.4°C 28.9°F-1.7°C 86% 4.4 mph SW7.1 kmh SW 8.1 mph13.0 kmh 29.68 in1005.1 mb 0.00 in0.0 mm 0.00 in0.0 mm 0.06 in1.5 mm
06:08 AM 32.5°F0.3°C 29.1°F-1.6°C 87% 4.4 mph SW7.1 kmh SW 9.9 mph15.9 kmh 29.68 in1005.1 mb 0.00 in0.0 mm 0.00 in0.0 mm 0.06 in1.5 mm
05:58 AM 32.5°F0.3°C 29.1°F-1.6°C 87% 3.1 mph SW5.0 kmh SW 6.8 mph10.9 kmh 29.68 in1005.1 mb 0.00 in0.0 mm 0.00 in0.0 mm 0.06 in1.5 mm
05:48 AM 32.9°F0.5°C 29.5°F-1.4°C 87% 2.5 mph SW4.0 kmh SW 4.4 mph7.1 kmh 29.69 in1005.4 mb 0.00 in0.0 mm 0.00 in0.0 mm 0.06 in1.5 mm
05:38 AM 33.1°F0.6°C 29.8°F-1.2°C 88% 2.5 mph SW4.0 kmh SW 6.8 mph10.9 kmh 29.69 in1005.4 mb 0.00 in0.0 mm 0.00 in0.0 mm 0.06 in1.5 mm
05:28 AM 33.3°F0.7°C 29.8°F-1.2°C 87% 1.9 mph SW3.1 kmh SW 5.0 mph8.0 kmh 29.70 in1005.8 mb 0.00 in0.0 mm 0.00 in0.0 mm 0.06 in1.5 mm
05:18 AM 33.4°F0.8°C 29.7°F-1.3°C 86% 1.9 mph SW3.1 kmh SW 3.7 mph6.0 kmh 29.70 in1005.8 mb 0.00 in0.0 mm 0.00 in0.0 mm 0.06 in1.5 mm
05:08 AM 33.4°F0.8°C 29.3°F-1.5°C 85% 1.2 mph SSW1.9 kmh SSW 3.7 mph6.0 kmh 29.70 in1005.8 mb 0.00 in0.0 mm 0.00 in0.0 mm 0.06 in1.5 mm
04:58 AM 33.6°F0.9°C 29.5°F-1.4°C 85% 1.2 mph SW1.9 kmh SW 2.5 mph4.0 kmh 29.71 in1006.1 mb 0.00 in0.0 mm 0.00 in0.0 mm 0.06 in1.5 mm
04:48 AM 33.8°F1.0°C 29.5°F-1.4°C 84% 1.2 mph SW1.9 kmh SW 3.1 mph5.0 kmh 29.70 in1005.8 mb 0.00 in0.0 mm 0.00 in0.0 mm 0.06 in1.5 mm
04:38 AM 34.0°F1.1°C 29.7°F-1.3°C 84% 1.2 mph SSW1.9 kmh SSW 3.1 mph5.0 kmh 29.70 in1005.8 mb 0.00 in0.0 mm 0.00 in0.0 mm 0.06 in1.5 mm
04:28 AM 34.2°F1.2°C 29.8°F-1.2°C 84% 1.2 mph SSW1.9 kmh SSW 6.2 mph10.0 kmh 29.71 in1006.1 mb 0.00 in0.0 mm 0.00 in0.0 mm 0.06 in1.5 mm
04:18 AM 34.2°F1.2°C 29.8°F-1.2°C 84% 3.7 mph SW6.0 kmh SW 7.5 mph12.1 kmh 29.71 in1006.1 mb 0.00 in0.0 mm 0.00 in0.0 mm 0.06 in1.5 mm
04:08 AM 34.0°F1.1°C 29.7°F-1.3°C 84% 1.2 mph SW1.9 kmh SW 5.0 mph8.0 kmh 29.72 in1006.4 mb 0.00 in0.0 mm 0.00 in0.0 mm 0.06 in1.5 mm
03:58 AM 34.0°F1.1°C 29.7°F-1.3°C 84% 1.9 mph SW3.1 kmh SW 5.0 mph8.0 kmh 29.72 in1006.4 mb 0.00 in0.0 mm 0.00 in0.0 mm 0.06 in1.5 mm
03:49 AM 34.0°F1.1°C 29.8°F-1.2°C 85% 1.9 mph SW3.1 kmh SW 5.6 mph9.0 kmh 29.72 in1006.4 mb 0.00 in0.0 mm 0.00 in0.0 mm 0.06 in1.5 mm
03:37 AM 33.8°F1.0°C 30.0°F-1.1°C 86% 3.1 mph SW5.0 kmh SW 7.5 mph12.1 kmh 29.72 in1006.4 mb 0.00 in0.0 mm 0.00 in0.0 mm 0.06 in1.5 mm
03:28 AM 33.8°F1.0°C 30.0°F-1.1°C 86% 1.9 mph SW3.1 kmh SW 4.4 mph7.1 kmh 29.72 in1006.4 mb 0.00 in0.0 mm 0.00 in0.0 mm 0.06 in1.5 mm
03:18 AM 33.6°F0.9°C 29.8°F-1.2°C 86% 1.9 mph WSW3.1 kmh WSW 5.0 mph8.0 kmh 29.72 in1006.4 mb 0.00 in0.0 mm 0.00 in0.0 mm 0.06 in1.5 mm
03:08 AM 33.6°F0.9°C 30.2°F-1.0°C 87% 2.5 mph SW4.0 kmh SW 6.2 mph10.0 kmh 29.72 in1006.4 mb 0.00 in0.0 mm 0.00 in0.0 mm 0.06 in1.5 mm
02:58 AM 33.6°F0.9°C 30.2°F-1.0°C 87% 3.7 mph SW6.0 kmh SW 8.1 mph13.0 kmh 29.73 in1006.8 mb 0.00 in0.0 mm 0.00 in0.0 mm 0.06 in1.5 mm
02:48 AM 33.4°F0.8°C 30.0°F-1.1°C 87% 5.0 mph SW8.0 kmh SW 8.7 mph14.0 kmh 29.73 in1006.8 mb 0.00 in0.0 mm 0.00 in0.0 mm 0.06 in1.5 mm
02:38 AM 33.6°F0.9°C 30.2°F-1.0°C 87% 3.7 mph SSW6.0 kmh SSW 10.6 mph17.1 kmh 29.73 in1006.8 mb 0.00 in0.0 mm 0.00 in0.0 mm 0.06 in1.5 mm
02:28 AM 33.8°F1.0°C 30.6°F-0.8°C 88% 3.7 mph SSW6.0 kmh SSW 8.7 mph14.0 kmh 29.73 in1006.8 mb 0.00 in0.0 mm 0.00 in0.0 mm 0.06 in1.5 mm
02:18 AM 34.0°F1.1°C 30.7°F-0.7°C 88% 3.1 mph SSW5.0 kmh SSW 6.8 mph10.9 kmh 29.73 in1006.8 mb 0.00 in0.0 mm 0.00 in0.0 mm 0.06 in1.5 mm
02:07 AM 34.3°F1.3°C 30.7°F-0.7°C 87% 3.1 mph SW5.0 kmh SW 8.1 mph13.0 kmh 29.73 in1006.8 mb 0.00 in0.0 mm 0.00 in0.0 mm 0.06 in1.5 mm
01:58 AM 34.5°F1.4°C 30.9°F-0.6°C 87% 3.7 mph SSW6.0 kmh SSW 9.9 mph15.9 kmh 29.73 in1006.8 mb 0.00 in0.0 mm 0.00 in0.0 mm 0.06 in1.5 mm
01:48 AM 34.7°F1.5°C 31.5°F-0.3°C 88% 3.7 mph SSW6.0 kmh SSW 9.3 mph15.0 kmh 29.73 in1006.8 mb 0.00 in0.0 mm 0.00 in0.0 mm 0.06 in1.5 mm
01:38 AM 34.5°F1.4°C 31.3°F-0.4°C 88% 2.5 mph SW4.0 kmh SW 9.3 mph15.0 kmh 29.73 in1006.8 mb 0.02 in0.5 mm 0.00 in0.0 mm 0.06 in1.5 mm
01:28 AM 34.7°F1.5°C 31.8°F-0.1°C 89% 1.2 mph SW1.9 kmh SW 5.6 mph9.0 kmh 29.73 in1006.8 mb 0.02 in0.5 mm 0.00 in0.0 mm 0.06 in1.5 mm
01:17 AM 34.7°F1.5°C 32.0°F0.0°C 90% 2.5 mph SW4.0 kmh SW 6.8 mph10.9 kmh 29.73 in1006.8 mb 0.04 in1.0 mm 0.00 in0.0 mm 0.06 in1.5 mm
01:08 AM 34.7°F1.5°C 32.0°F0.0°C 90% 3.1 mph SSW5.0 kmh SSW 8.7 mph14.0 kmh 29.73 in1006.8 mb 0.06 in1.5 mm 0.00 in0.0 mm 0.06 in1.5 mm
12:58 AM 34.9°F1.6°C 32.2°F0.1°C 90% 2.5 mph SSW4.0 kmh SSW 8.7 mph14.0 kmh 29.74 in1007.1 mb 0.06 in1.5 mm 0.00 in0.0 mm 0.06 in1.5 mm
12:48 AM 34.9°F1.6°C 32.2°F0.1°C 90% 2.5 mph SW4.0 kmh SW 8.7 mph14.0 kmh 29.73 in1006.8 mb 0.06 in1.5 mm 0.00 in0.0 mm 0.05 in1.3 mm
12:38 AM 34.7°F1.5°C 32.0°F0.0°C 90% 1.9 mph SW3.1 kmh SW 7.5 mph12.1 kmh 29.73 in1006.8 mb 0.06 in1.5 mm 0.12 in3.0 mm 0.04 in1.0 mm
12:28 AM 34.5°F1.4°C 31.8°F-0.1°C 90% 3.1 mph SW5.0 kmh SW 8.1 mph13.0 kmh 29.73 in1006.8 mb 0.04 in1.0 mm 0.12 in3.0 mm 0.03 in0.8 mm
12:18 AM 35.1°F1.7°C 32.2°F0.1°C 89% 5.0 mph WSW8.0 kmh WSW 11.8 mph19.0 kmh 29.75 in1007.5 mb 0.02 in0.5 mm 0.00 in0.0 mm 0.02 in0.5 mm
12:08 AM 35.1°F1.7°C 32.2°F0.1°C 89% 5.0 mph WSW8.0 kmh WSW 11.8 mph19.0 kmh 29.75 in1007.5 mb 0.02 in0.5 mm 0.15 in3.8 mm 0.02 in0.5 mm